sensor_id;sensor_type;location;lat;lon;timestamp;temperature;humidity
3942;DHT22;1985;48.592;8.850;2023-04-03T00:01:29;5.50;99.90
3942;DHT22;1985;48.592;8.850;2023-04-03T00:03:55;5.40;99.90
3942;DHT22;1985;48.592;8.850;2023-04-03T00:06:22;5.30;99.90
3942;DHT22;1985;48.592;8.850;2023-04-03T00:08:48;5.30;99.90
3942;DHT22;1985;48.592;8.850;2023-04-03T00:11:13;5.40;99.90
3942;DHT22;1985;48.592;8.850;2023-04-03T00:13:41;5.50;99.90
3942;DHT22;1985;48.592;8.850;2023-04-03T00:16:08;5.50;99.90
3942;DHT22;1985;48.592;8.850;2023-04-03T00:18:34;5.50;99.90
3942;DHT22;1985;48.592;8.850;2023-04-03T00:21:00;5.50;99.90
3942;DHT22;1985;48.592;8.850;2023-04-03T00:23:26;5.60;99.90
3942;DHT22;1985;48.592;8.850;2023-04-03T00:25:53;5.60;99.90
3942;DHT22;1985;48.592;8.850;2023-04-03T00:28:18;5.80;99.90
3942;DHT22;1985;48.592;8.850;2023-04-03T00:30:44;5.80;99.90
3942;DHT22;1985;48.592;8.850;2023-04-03T00:33:13;5.80;99.90
3942;DHT22;1985;48.592;8.850;2023-04-03T00:35:39;5.90;99.90
3942;DHT22;1985;48.592;8.850;2023-04-03T00:38:05;6.00;99.90
3942;DHT22;1985;48.592;8.850;2023-04-03T00:40:36;6.00;99.90
3942;DHT22;1985;48.592;8.850;2023-04-03T00:43:10;6.00;99.90
3942;DHT22;1985;48.592;8.850;2023-04-03T00:45:48;6.00;99.90
3942;DHT22;1985;48.592;8.850;2023-04-03T00:48:44;6.10;99.90
3942;DHT22;1985;48.592;8.850;2023-04-03T00:51:13;6.20;99.90
3942;DHT22;1985;48.592;8.850;2023-04-03T00:53:59;6.20;99.90
3942;DHT22;1985;48.592;8.850;2023-04-03T00:56:27;6.20;99.90
3942;DHT22;1985;48.592;8.850;2023-04-03T00:58:58;6.20;99.90
3942;DHT22;1985;48.592;8.850;2023-04-03T01:01:27;6.20;99.90
3942;DHT22;1985;48.592;8.850;2023-04-03T01:03:53;6.10;99.90
3942;DHT22;1985;48.592;8.850;2023-04-03T01:06:26;6.10;99.90
3942;DHT22;1985;48.592;8.850;2023-04-03T01:08:53;6.20;99.90
3942;DHT22;1985;48.592;8.850;2023-04-03T01:11:19;6.10;99.90
3942;DHT22;1985;48.592;8.850;2023-04-03T01:13:46;6.10;99.90
3942;DHT22;1985;48.592;8.850;2023-04-03T01:16:11;6.20;99.90
3942;DHT22;1985;48.592;8.850;2023-04-03T01:18:39;6.20;99.90
3942;DHT22;1985;48.592;8.850;2023-04-03T01:24:00;6.00;99.90
3942;DHT22;1985;48.592;8.850;2023-04-03T01:26:31;5.90;99.90
3942;DHT22;1985;48.592;8.850;2023-04-03T01:28:59;5.90;99.90
3942;DHT22;1985;48.592;8.850;2023-04-03T01:34:00;6.00;99.90
3942;DHT22;1985;48.592;8.850;2023-04-03T01:36:28;6.10;99.90
3942;DHT22;1985;48.592;8.850;2023-04-03T01:38:55;6.20;99.90
3942;DHT22;1985;48.592;8.850;2023-04-03T01:41:22;6.10;99.90
3942;DHT22;1985;48.592;8.850;2023-04-03T01:43:48;6.00;99.90
3942;DHT22;1985;48.592;8.850;2023-04-03T01:46:15;5.90;99.90
3942;DHT22;1985;48.592;8.850;2023-04-03T01:48:41;6.00;99.90
3942;DHT22;1985;48.592;8.850;2023-04-03T01:51:07;6.10;99.90
3942;DHT22;1985;48.592;8.850;2023-04-03T01:53:33;6.00;99.90
3942;DHT22;1985;48.592;8.850;2023-04-03T01:55:58;6.00;99.90
3942;DHT22;1985;48.592;8.850;2023-04-03T01:58:24;5.90;99.90
3942;DHT22;1985;48.592;8.850;2023-04-03T02:00:51;5.80;99.90
3942;DHT22;1985;48.592;8.850;2023-04-03T02:03:16;5.70;99.90
3942;DHT22;1985;48.592;8.850;2023-04-03T02:05:42;5.60;99.90
3942;DHT22;1985;48.592;8.850;2023-04-03T02:08:07;5.50;99.90
3942;DHT22;1985;48.592;8.850;2023-04-03T02:10:33;5.60;99.90
3942;DHT22;1985;48.592;8.850;2023-04-03T02:12:59;5.70;99.90
3942;DHT22;1985;48.592;8.850;2023-04-03T02:15:24;5.80;99.90
3942;DHT22;1985;48.592;8.850;2023-04-03T02:17:50;5.60;99.90
3942;DHT22;1985;48.592;8.850;2023-04-03T02:20:16;5.70;99.90
3942;DHT22;1985;48.592;8.850;2023-04-03T02:22:42;5.60;99.90
3942;DHT22;1985;48.592;8.850;2023-04-03T02:25:08;5.60;99.90
3942;DHT22;1985;48.592;8.850;2023-04-03T02:27:33;5.60;99.90
3942;DHT22;1985;48.592;8.850;2023-04-03T02:30:00;5.60;99.90
3942;DHT22;1985;48.592;8.850;2023-04-03T02:32:26;5.60;99.90
3942;DHT22;1985;48.592;8.850;2023-04-03T02:34:52;5.50;99.90
3942;DHT22;1985;48.592;8.850;2023-04-03T02:37:17;5.50;99.90
3942;DHT22;1985;48.592;8.850;2023-04-03T02:39:43;5.50;99.90
3942;DHT22;1985;48.592;8.850;2023-04-03T02:42:08;5.40;99.90
3942;DHT22;1985;48.592;8.850;2023-04-03T02:44:34;5.50;99.90
3942;DHT22;1985;48.592;8.850;2023-04-03T02:47:01;5.40;99.90
3942;DHT22;1985;48.592;8.850;2023-04-03T02:49:26;5.30;99.90
3942;DHT22;1985;48.592;8.850;2023-04-03T02:51:52;5.30;99.90
3942;DHT22;1985;48.592;8.850;2023-04-03T02:54:17;5.30;99.90
3942;DHT22;1985;48.592;8.850;2023-04-03T02:56:43;5.40;99.90
3942;DHT22;1985;48.592;8.850;2023-04-03T02:59:09;5.30;99.90
3942;DHT22;1985;48.592;8.850;2023-04-03T03:01:34;5.30;99.90
3942;DHT22;1985;48.592;8.850;2023-04-03T03:04:01;5.30;99.90
3942;DHT22;1985;48.592;8.850;2023-04-03T03:06:27;5.30;99.90
3942;DHT22;1985;48.592;8.850;2023-04-03T03:08:53;5.20;99.90
3942;DHT22;1985;48.592;8.850;2023-04-03T03:11:18;5.10;99.90
3942;DHT22;1985;48.592;8.850;2023-04-03T03:13:44;4.90;99.90
3942;DHT22;1985;48.592;8.850;2023-04-03T03:16:10;4.80;99.90
3942;DHT22;1985;48.592;8.850;2023-04-03T03:18:35;4.80;99.90
3942;DHT22;1985;48.592;8.850;2023-04-03T03:21:02;4.70;99.90
3942;DHT22;1985;48.592;8.850;2023-04-03T03:23:30;4.70;99.90
3942;DHT22;1985;48.592;8.850;2023-04-03T03:26:01;4.60;99.90
3942;DHT22;1985;48.592;8.850;2023-04-03T03:28:28;4.60;99.90
3942;DHT22;1985;48.592;8.850;2023-04-03T03:30:53;4.50;99.90
3942;DHT22;1985;48.592;8.850;2023-04-03T03:33:19;4.50;99.90
3942;DHT22;1985;48.592;8.850;2023-04-03T03:35:45;4.40;99.90
3942;DHT22;1985;48.592;8.850;2023-04-03T03:38:11;4.50;99.90
3942;DHT22;1985;48.592;8.850;2023-04-03T03:40:37;4.40;99.90
3942;DHT22;1985;48.592;8.850;2023-04-03T03:43:03;4.20;99.90
3942;DHT22;1985;48.592;8.850;2023-04-03T03:45:28;4.30;99.90
3942;DHT22;1985;48.592;8.850;2023-04-03T03:47:54;4.30;99.90
3942;DHT22;1985;48.592;8.850;2023-04-03T03:50:20;4.30;99.90
3942;DHT22;1985;48.592;8.850;2023-04-03T03:52:46;4.30;99.90
3942;DHT22;1985;48.592;8.850;2023-04-03T03:55:11;4.40;99.90
3942;DHT22;1985;48.592;8.850;2023-04-03T03:57:37;4.50;99.90
3942;DHT22;1985;48.592;8.850;2023-04-03T04:00:03;4.50;99.90
3942;DHT22;1985;48.592;8.850;2023-04-03T04:02:29;4.50;99.90
3942;DHT22;1985;48.592;8.850;2023-04-03T04:04:55;4.40;99.90
3942;DHT22;1985;48.592;8.850;2023-04-03T04:07:20;4.20;99.90
3942;DHT22;1985;48.592;8.850;2023-04-03T04:09:46;4.20;99.90
3942;DHT22;1985;48.592;8.850;2023-04-03T04:12:12;4.30;99.90
3942;DHT22;1985;48.592;8.850;2023-04-03T04:14:37;4.30;99.90
3942;DHT22;1985;48.592;8.850;2023-04-03T04:17:03;4.10;99.90
3942;DHT22;1985;48.592;8.850;2023-04-03T04:19:29;4.00;99.90
3942;DHT22;1985;48.592;8.850;2023-04-03T04:21:54;4.00;99.90
3942;DHT22;1985;48.592;8.850;2023-04-03T04:24:20;4.00;99.90
3942;DHT22;1985;48.592;8.850;2023-04-03T04:26:48;4.20;99.90
3942;DHT22;1985;48.592;8.850;2023-04-03T04:29:13;4.10;99.90
3942;DHT22;1985;48.592;8.850;2023-04-03T04:31:39;4.10;99.90
3942;DHT22;1985;48.592;8.850;2023-04-03T04:34:05;4.10;99.90
3942;DHT22;1985;48.592;8.850;2023-04-03T04:36:30;4.20;99.90
3942;DHT22;1985;48.592;8.850;2023-04-03T04:38:56;4.10;99.90
3942;DHT22;1985;48.592;8.850;2023-04-03T04:41:22;4.00;99.90
3942;DHT22;1985;48.592;8.850;2023-04-03T04:43:49;4.20;99.90
3942;DHT22;1985;48.592;8.850;2023-04-03T04:46:15;4.20;99.90
3942;DHT22;1985;48.592;8.850;2023-04-03T04:48:41;4.10;99.90
3942;DHT22;1985;48.592;8.850;2023-04-03T04:51:06;4.20;99.90
3942;DHT22;1985;48.592;8.850;2023-04-03T04:53:32;4.20;99.90
3942;DHT22;1985;48.592;8.850;2023-04-03T04:55:58;4.10;99.90
3942;DHT22;1985;48.592;8.850;2023-04-03T04:58:24;4.20;99.90
3942;DHT22;1985;48.592;8.850;2023-04-03T05:00:49;4.40;99.90
3942;DHT22;1985;48.592;8.850;2023-04-03T05:03:15;4.50;99.90
3942;DHT22;1985;48.592;8.850;2023-04-03T05:05:41;4.60;99.90
3942;DHT22;1985;48.592;8.850;2023-04-03T05:08:07;4.60;99.90
3942;DHT22;1985;48.592;8.850;2023-04-03T05:10:34;4.60;99.90
3942;DHT22;1985;48.592;8.850;2023-04-03T05:12:59;4.70;99.90
3942;DHT22;1985;48.592;8.850;2023-04-03T05:15:25;4.70;99.90
3942;DHT22;1985;48.592;8.850;2023-04-03T05:17:50;4.80;99.90
3942;DHT22;1985;48.592;8.850;2023-04-03T05:20:16;4.70;99.90
3942;DHT22;1985;48.592;8.850;2023-04-03T05:22:42;4.80;99.90
3942;DHT22;1985;48.592;8.850;2023-04-03T05:25:08;4.90;99.90
3942;DHT22;1985;48.592;8.850;2023-04-03T05:27:34;4.90;99.90
3942;DHT22;1985;48.592;8.850;2023-04-03T05:30:00;4.90;99.90
3942;DHT22;1985;48.592;8.850;2023-04-03T05:32:26;4.80;99.90
3942;DHT22;1985;48.592;8.850;2023-04-03T05:34:53;4.70;99.90
3942;DHT22;1985;48.592;8.850;2023-04-03T05:37:19;4.80;99.90
3942;DHT22;1985;48.592;8.850;2023-04-03T05:39:45;4.80;99.90
3942;DHT22;1985;48.592;8.850;2023-04-03T05:42:11;4.90;99.90
3942;DHT22;1985;48.592;8.850;2023-04-03T05:44:38;5.00;99.90
3942;DHT22;1985;48.592;8.850;2023-04-03T05:47:04;5.10;99.90
3942;DHT22;1985;48.592;8.850;2023-04-03T05:49:30;5.10;99.90
3942;DHT22;1985;48.592;8.850;2023-04-03T05:51:55;4.90;99.90
3942;DHT22;1985;48.592;8.850;2023-04-03T05:54:29;4.90;99.90
3942;DHT22;1985;48.592;8.850;2023-04-03T05:56:55;5.20;99.90
3942;DHT22;1985;48.592;8.850;2023-04-03T05:59:21;5.20;99.90
3942;DHT22;1985;48.592;8.850;2023-04-03T06:01:47;5.10;99.90
3942;DHT22;1985;48.592;8.850;2023-04-03T06:04:14;5.30;99.90
3942;DHT22;1985;48.592;8.850;2023-04-03T06:06:54;5.20;99.90
3942;DHT22;1985;48.592;8.850;2023-04-03T06:09:23;5.10;99.90
3942;DHT22;1985;48.592;8.850;2023-04-03T06:11:49;5.20;99.90
3942;DHT22;1985;48.592;8.850;2023-04-03T06:14:15;5.20;99.90
3942;DHT22;1985;48.592;8.850;2023-04-03T06:16:41;5.30;99.90
3942;DHT22;1985;48.592;8.850;2023-04-03T06:19:08;5.40;99.90
3942;DHT22;1985;48.592;8.850;2023-04-03T06:21:34;5.60;99.90
3942;DHT22;1985;48.592;8.850;2023-04-03T06:24:02;5.80;99.90
3942;DHT22;1985;48.592;8.850;2023-04-03T06:26:28;5.70;99.90
3942;DHT22;1985;48.592;8.850;2023-04-03T06:28:54;5.80;99.90
3942;DHT22;1985;48.592;8.850;2023-04-03T06:31:20;5.90;99.90
3942;DHT22;1985;48.592;8.850;2023-04-03T06:33:45;6.00;99.90
3942;DHT22;1985;48.592;8.850;2023-04-03T06:36:11;6.10;99.90
3942;DHT22;1985;48.592;8.850;2023-04-03T06:38:37;6.20;99.40
3942;DHT22;1985;48.592;8.850;2023-04-03T06:41:03;6.00;98.40
3942;DHT22;1985;48.592;8.850;2023-04-03T06:43:29;6.00;98.40
3942;DHT22;1985;48.592;8.850;2023-04-03T06:45:56;5.70;98.70
3942;DHT22;1985;48.592;8.850;2023-04-03T06:48:22;5.80;98.50
3942;DHT22;1985;48.592;8.850;2023-04-03T06:50:48;5.90;98.90
3942;DHT22;1985;48.592;8.850;2023-04-03T06:53:14;5.70;98.50
3942;DHT22;1985;48.592;8.850;2023-04-03T06:55:40;5.70;98.90
3942;DHT22;1985;48.592;8.850;2023-04-03T06:58:06;5.50;99.40
3942;DHT22;1985;48.592;8.850;2023-04-03T07:00:32;5.50;99.70
3942;DHT22;1985;48.592;8.850;2023-04-03T07:02:58;5.50;99.90
3942;DHT22;1985;48.592;8.850;2023-04-03T07:05:25;5.40;99.60
3942;DHT22;1985;48.592;8.850;2023-04-03T07:07:52;5.30;99.90
3942;DHT22;1985;48.592;8.850;2023-04-03T07:10:18;5.30;99.90
3942;DHT22;1985;48.592;8.850;2023-04-03T07:12:44;5.40;99.90
3942;DHT22;1985;48.592;8.850;2023-04-03T07:15:11;5.40;99.90
3942;DHT22;1985;48.592;8.850;2023-04-03T07:17:38;5.60;99.90
3942;DHT22;1985;48.592;8.850;2023-04-03T07:20:04;5.60;99.90
3942;DHT22;1985;48.592;8.850;2023-04-03T07:22:30;5.70;99.90
3942;DHT22;1985;48.592;8.850;2023-04-03T07:24:56;5.80;99.40
3942;DHT22;1985;48.592;8.850;2023-04-03T07:27:22;5.90;99.30
3942;DHT22;1985;48.592;8.850;2023-04-03T07:29:47;5.90;98.90
3942;DHT22;1985;48.592;8.850;2023-04-03T07:32:16;6.00;99.00
3942;DHT22;1985;48.592;8.850;2023-04-03T07:34:43;6.00;99.00
3942;DHT22;1985;48.592;8.850;2023-04-03T07:37:09;6.10;98.60
3942;DHT22;1985;48.592;8.850;2023-04-03T07:39:35;6.20;98.90
3942;DHT22;1985;48.592;8.850;2023-04-03T07:42:01;6.10;97.90
3942;DHT22;1985;48.592;8.850;2023-04-03T07:44:27;6.20;98.40
3942;DHT22;1985;48.592;8.850;2023-04-03T07:46:53;6.60;98.40
3942;DHT22;1985;48.592;8.850;2023-04-03T07:49:20;7.00;98.30
3942;DHT22;1985;48.592;8.850;2023-04-03T07:51:48;7.10;97.30
3942;DHT22;1985;48.592;8.850;2023-04-03T07:54:14;7.10;96.70
3942;DHT22;1985;48.592;8.850;2023-04-03T07:56:40;6.70;96.60
3942;DHT22;1985;48.592;8.850;2023-04-03T07:59:06;6.60;96.70
3942;DHT22;1985;48.592;8.850;2023-04-03T08:01:32;6.80;96.40
3942;DHT22;1985;48.592;8.850;2023-04-03T08:03:59;6.90;96.30
3942;DHT22;1985;48.592;8.850;2023-04-03T08:06:24;6.60;96.50
3942;DHT22;1985;48.592;8.850;2023-04-03T08:08:50;6.80;96.90
3942;DHT22;1985;48.592;8.850;2023-04-03T08:11:17;6.90;96.80
3942;DHT22;1985;48.592;8.850;2023-04-03T08:13:44;7.00;96.30
3942;DHT22;1985;48.592;8.850;2023-04-03T08:16:10;7.30;95.60
3942;DHT22;1985;48.592;8.850;2023-04-03T08:18:36;7.50;95.20
3942;DHT22;1985;48.592;8.850;2023-04-03T08:21:06;7.60;94.90
3942;DHT22;1985;48.592;8.850;2023-04-03T08:23:32;7.70;93.80
3942;DHT22;1985;48.592;8.850;2023-04-03T08:25:58;7.80;93.30
3942;DHT22;1985;48.592;8.850;2023-04-03T08:28:23;7.80;93.50
3942;DHT22;1985;48.592;8.850;2023-04-03T08:30:49;7.90;93.30
3942;DHT22;1985;48.592;8.850;2023-04-03T08:33:14;8.10;93.00
3942;DHT22;1985;48.592;8.850;2023-04-03T08:35:41;7.90;92.90
3942;DHT22;1985;48.592;8.850;2023-04-03T08:38:09;8.10;93.30
3942;DHT22;1985;48.592;8.850;2023-04-03T08:40:34;8.10;92.40
3942;DHT22;1985;48.592;8.850;2023-04-03T08:45:53;7.50;92.30
3942;DHT22;1985;48.592;8.850;2023-04-03T08:48:26;7.60;93.10
3942;DHT22;1985;48.592;8.850;2023-04-03T08:51:18;7.70;92.90
3942;DHT22;1985;48.592;8.850;2023-04-03T08:54:00;8.10;92.80
3942;DHT22;1985;48.592;8.850;2023-04-03T08:56:27;8.20;91.60
3942;DHT22;1985;48.592;8.850;2023-04-03T08:59:05;8.20;92.00
3942;DHT22;1985;48.592;8.850;2023-04-03T09:01:37;8.00;91.30
3942;DHT22;1985;48.592;8.850;2023-04-03T09:04:10;8.10;90.90
3942;DHT22;1985;48.592;8.850;2023-04-03T09:06:37;8.00;90.80
3942;DHT22;1985;48.592;8.850;2023-04-03T09:16:56;8.20;90.90
3942;DHT22;1985;48.592;8.850;2023-04-03T09:19:37;7.90;91.90
3942;DHT22;1985;48.592;8.850;2023-04-03T09:22:21;8.00;92.00
3942;DHT22;1985;48.592;8.850;2023-04-03T09:25:02;7.80;92.80
3942;DHT22;1985;48.592;8.850;2023-04-03T09:27:31;7.70;92.90
3942;DHT22;1985;48.592;8.850;2023-04-03T09:29:56;7.60;93.20
3942;DHT22;1985;48.592;8.850;2023-04-03T09:32:34;7.50;91.70
3942;DHT22;1985;48.592;8.850;2023-04-03T09:37:42;7.90;90.80
3942;DHT22;1985;48.592;8.850;2023-04-03T09:42:55;8.00;89.20
3942;DHT22;1985;48.592;8.850;2023-04-03T09:45:26;7.70;89.80
3942;DHT22;1985;48.592;8.850;2023-04-03T09:48:23;7.90;89.80
3942;DHT22;1985;48.592;8.850;2023-04-03T09:50:55;7.60;88.00
3942;DHT22;1985;48.592;8.850;2023-04-03T09:53:36;7.40;90.00
3942;DHT22;1985;48.592;8.850;2023-04-03T10:01:33;7.90;89.40
3942;DHT22;1985;48.592;8.850;2023-04-03T10:04:17;7.90;87.70
3942;DHT22;1985;48.592;8.850;2023-04-03T10:06:50;8.20;89.40
3942;DHT22;1985;48.592;8.850;2023-04-03T10:09:26;8.40;89.00
3942;DHT22;1985;48.592;8.850;2023-04-03T10:12:09;8.40;87.30
3942;DHT22;1985;48.592;8.850;2023-04-03T10:14:57;8.30;88.90
3942;DHT22;1985;48.592;8.850;2023-04-03T10:20:06;7.90;90.10
3942;DHT22;1985;48.592;8.850;2023-04-03T10:31:15;7.60;91.00
3942;DHT22;1985;48.592;8.850;2023-04-03T10:33:52;7.70;91.40
3942;DHT22;1985;48.592;8.850;2023-04-03T10:36:36;7.60;90.90
3942;DHT22;1985;48.592;8.850;2023-04-03T10:42:04;7.50;90.90
3942;DHT22;1985;48.592;8.850;2023-04-03T10:53:12;9.00;83.30
3942;DHT22;1985;48.592;8.850;2023-04-03T10:55:58;8.90;84.00
3942;DHT22;1985;48.592;8.850;2023-04-03T10:58:32;9.00;82.90
3942;DHT22;1985;48.592;8.850;2023-04-03T11:01:07;8.80;82.70
3942;DHT22;1985;48.592;8.850;2023-04-03T11:03:50;8.30;82.40
3942;DHT22;1985;48.592;8.850;2023-04-03T11:06:19;8.00;82.90
3942;DHT22;1985;48.592;8.850;2023-04-03T11:09:05;7.90;82.40
3942;DHT22;1985;48.592;8.850;2023-04-03T11:11:36;8.10;84.50
3942;DHT22;1985;48.592;8.850;2023-04-03T11:14:43;8.20;82.90
3942;DHT22;1985;48.592;8.850;2023-04-03T11:20:08;8.10;85.90
3942;DHT22;1985;48.592;8.850;2023-04-03T11:22:42;7.80;87.50
3942;DHT22;1985;48.592;8.850;2023-04-03T11:30:47;7.60;88.60
3942;DHT22;1985;48.592;8.850;2023-04-03T11:38:49;8.60;85.30
3942;DHT22;1985;48.592;8.850;2023-04-03T11:41:16;8.80;82.30
3942;DHT22;1985;48.592;8.850;2023-04-03T11:44:01;8.60;81.50
3942;DHT22;1985;48.592;8.850;2023-04-03T11:46:56;8.60;81.10
3942;DHT22;1985;48.592;8.850;2023-04-03T11:50:00;8.60;81.40
3942;DHT22;1985;48.592;8.850;2023-04-03T12:00:45;8.30;83.80
3942;DHT22;1985;48.592;8.850;2023-04-03T12:03:55;8.20;83.20
3942;DHT22;1985;48.592;8.850;2023-04-03T12:08:47;8.00;84.40
3942;DHT22;1985;48.592;8.850;2023-04-03T12:11:40;8.10;83.70
3942;DHT22;1985;48.592;8.850;2023-04-03T12:14:14;8.50;84.30
3942;DHT22;1985;48.592;8.850;2023-04-03T12:16:42;8.60;83.30
3942;DHT22;1985;48.592;8.850;2023-04-03T12:48:15;9.40;77.80
3942;DHT22;1985;48.592;8.850;2023-04-03T12:50:43;9.80;78.00
3942;DHT22;1985;48.592;8.850;2023-04-03T12:53:27;9.80;75.40
3942;DHT22;1985;48.592;8.850;2023-04-03T12:55:57;9.60;75.40
3942;DHT22;1985;48.592;8.850;2023-04-03T12:58:26;9.50;75.70
3942;DHT22;1985;48.592;8.850;2023-04-03T13:03:28;9.10;74.10
3942;DHT22;1985;48.592;8.850;2023-04-03T13:06:01;8.60;75.90
3942;DHT22;1985;48.592;8.850;2023-04-03T13:08:27;8.60;77.40
3942;DHT22;1985;48.592;8.850;2023-04-03T13:11:06;8.60;77.00
3942;DHT22;1985;48.592;8.850;2023-04-03T13:13:34;8.40;76.80
3942;DHT22;1985;48.592;8.850;2023-04-03T13:15:59;8.30;78.10
3942;DHT22;1985;48.592;8.850;2023-04-03T13:18:35;8.20;76.50
3942;DHT22;1985;48.592;8.850;2023-04-03T13:21:24;7.70;77.30
3942;DHT22;1985;48.592;8.850;2023-04-03T13:23:53;7.30;78.90
3942;DHT22;1985;48.592;8.850;2023-04-03T13:26:21;7.40;79.30
3942;DHT22;1985;48.592;8.850;2023-04-03T13:28:48;7.40;78.70
3942;DHT22;1985;48.592;8.850;2023-04-03T13:31:28;7.40;79.40
3942;DHT22;1985;48.592;8.850;2023-04-03T13:34:06;7.90;78.90
3942;DHT22;1985;48.592;8.850;2023-04-03T13:36:40;8.60;78.30
3942;DHT22;1985;48.592;8.850;2023-04-03T13:41:38;9.50;74.70
3942;DHT22;1985;48.592;8.850;2023-04-03T13:49:31;9.00;72.20
3942;DHT22;1985;48.592;8.850;2023-04-03T13:51:57;8.60;72.90
3942;DHT22;1985;48.592;8.850;2023-04-03T13:54:32;8.40;74.00
3942;DHT22;1985;48.592;8.850;2023-04-03T13:57:00;8.20;75.80
3942;DHT22;1985;48.592;8.850;2023-04-03T13:59:32;7.70;74.50
3942;DHT22;1985;48.592;8.850;2023-04-03T14:04:30;7.50;77.60
3942;DHT22;1985;48.592;8.850;2023-04-03T14:06:57;7.70;77.20
3942;DHT22;1985;48.592;8.850;2023-04-03T14:09:25;7.80;76.40
3942;DHT22;1985;48.592;8.850;2023-04-03T14:11:54;7.70;76.20
3942;DHT22;1985;48.592;8.850;2023-04-03T14:14:27;8.00;77.30
3942;DHT22;1985;48.592;8.850;2023-04-03T14:16:55;8.30;76.80
3942;DHT22;1985;48.592;8.850;2023-04-03T14:19:32;8.40;74.50
3942;DHT22;1985;48.592;8.850;2023-04-03T14:22:00;8.50;74.60
3942;DHT22;1985;48.592;8.850;2023-04-03T14:24:26;8.30;74.00
3942;DHT22;1985;48.592;8.850;2023-04-03T14:26:54;8.20;73.50
3942;DHT22;1985;48.592;8.850;2023-04-03T14:29:21;8.20;74.00
3942;DHT22;1985;48.592;8.850;2023-04-03T14:31:48;7.90;72.50
3942;DHT22;1985;48.592;8.850;2023-04-03T14:34:14;7.90;73.20
3942;DHT22;1985;48.592;8.850;2023-04-03T14:36:41;7.80;73.30
3942;DHT22;1985;48.592;8.850;2023-04-03T14:39:08;7.40;74.40
3942;DHT22;1985;48.592;8.850;2023-04-03T14:41:35;7.10;74.90
3942;DHT22;1985;48.592;8.850;2023-04-03T14:44:02;7.20;75.90
3942;DHT22;1985;48.592;8.850;2023-04-03T14:46:39;7.20;75.10
3942;DHT22;1985;48.592;8.850;2023-04-03T14:49:20;7.30;75.60
3942;DHT22;1985;48.592;8.850;2023-04-03T14:51:47;7.40;76.30
3942;DHT22;1985;48.592;8.850;2023-04-03T14:54:20;7.50;76.00
3942;DHT22;1985;48.592;8.850;2023-04-03T14:56:51;7.50;74.40
3942;DHT22;1985;48.592;8.850;2023-04-03T14:59:16;7.70;75.40
3942;DHT22;1985;48.592;8.850;2023-04-03T15:01:45;7.90;74.00
3942;DHT22;1985;48.592;8.850;2023-04-03T15:04:19;8.20;72.60
3942;DHT22;1985;48.592;8.850;2023-04-03T15:06:47;8.20;72.00
3942;DHT22;1985;48.592;8.850;2023-04-03T15:09:22;8.30;72.20
3942;DHT22;1985;48.592;8.850;2023-04-03T15:11:53;8.20;70.20
3942;DHT22;1985;48.592;8.850;2023-04-03T15:14:20;7.90;72.00
3942;DHT22;1985;48.592;8.850;2023-04-03T15:16:46;7.90;72.50
3942;DHT22;1985;48.592;8.850;2023-04-03T15:19:12;8.10;72.50
3942;DHT22;1985;48.592;8.850;2023-04-03T15:21:38;8.00;71.60
3942;DHT22;1985;48.592;8.850;2023-04-03T15:24:04;8.20;70.70
3942;DHT22;1985;48.592;8.850;2023-04-03T15:26:30;8.10;71.70
3942;DHT22;1985;48.592;8.850;2023-04-03T15:28:56;8.40;71.20
3942;DHT22;1985;48.592;8.850;2023-04-03T15:31:22;8.50;71.10
3942;DHT22;1985;48.592;8.850;2023-04-03T15:33:48;8.70;71.30
3942;DHT22;1985;48.592;8.850;2023-04-03T15:36:13;8.30;70.80
3942;DHT22;1985;48.592;8.850;2023-04-03T15:38:39;8.10;73.20
3942;DHT22;1985;48.592;8.850;2023-04-03T15:41:05;8.00;72.70
3942;DHT22;1985;48.592;8.850;2023-04-03T15:43:31;8.00;72.50
3942;DHT22;1985;48.592;8.850;2023-04-03T15:45:59;7.70;71.80
3942;DHT22;1985;48.592;8.850;2023-04-03T15:48:26;7.50;72.00
3942;DHT22;1985;48.592;8.850;2023-04-03T15:50:52;7.50;71.70
3942;DHT22;1985;48.592;8.850;2023-04-03T15:53:18;7.40;70.70
3942;DHT22;1985;48.592;8.850;2023-04-03T15:55:44;7.60;72.00
3942;DHT22;1985;48.592;8.850;2023-04-03T15:58:09;8.20;70.40
3942;DHT22;1985;48.592;8.850;2023-04-03T16:00:36;8.50;70.70
3942;DHT22;1985;48.592;8.850;2023-04-03T16:03:06;8.80;70.00
3942;DHT22;1985;48.592;8.850;2023-04-03T16:05:35;8.60;68.20
3942;DHT22;1985;48.592;8.850;2023-04-03T16:08:01;8.40;67.70
3942;DHT22;1985;48.592;8.850;2023-04-03T16:10:27;8.00;69.00
3942;DHT22;1985;48.592;8.850;2023-04-03T16:12:53;7.60;69.60
3942;DHT22;1985;48.592;8.850;2023-04-03T16:15:19;7.40;69.80
3942;DHT22;1985;48.592;8.850;2023-04-03T16:17:44;7.10;71.30
3942;DHT22;1985;48.592;8.850;2023-04-03T16:20:11;7.00;71.80
3942;DHT22;1985;48.592;8.850;2023-04-03T16:22:38;7.00;72.20
3942;DHT22;1985;48.592;8.850;2023-04-03T16:25:06;7.00;73.20
3942;DHT22;1985;48.592;8.850;2023-04-03T16:27:32;6.90;72.40
3942;DHT22;1985;48.592;8.850;2023-04-03T16:29:57;6.90;72.60
3942;DHT22;1985;48.592;8.850;2023-04-03T16:32:29;6.80;71.60
3942;DHT22;1985;48.592;8.850;2023-04-03T16:34:55;6.90;71.50
3942;DHT22;1985;48.592;8.850;2023-04-03T16:37:21;6.90;71.00
3942;DHT22;1985;48.592;8.850;2023-04-03T16:39:47;7.00;71.00
3942;DHT22;1985;48.592;8.850;2023-04-03T16:42:12;7.10;70.80
3942;DHT22;1985;48.592;8.850;2023-04-03T16:44:38;7.10;71.10
3942;DHT22;1985;48.592;8.850;2023-04-03T16:47:05;7.10;70.10
3942;DHT22;1985;48.592;8.850;2023-04-03T16:49:31;7.00;70.40
3942;DHT22;1985;48.592;8.850;2023-04-03T16:52:04;6.80;70.50
3942;DHT22;1985;48.592;8.850;2023-04-03T16:54:30;6.70;69.90
3942;DHT22;1985;48.592;8.850;2023-04-03T16:56:56;6.60;69.40
3942;DHT22;1985;48.592;8.850;2023-04-03T16:59:22;6.50;70.40
3942;DHT22;1985;48.592;8.850;2023-04-03T17:01:48;6.30;71.30
3942;DHT22;1985;48.592;8.850;2023-04-03T17:04:13;6.30;72.20
3942;DHT22;1985;48.592;8.850;2023-04-03T17:06:39;6.50;72.10
3942;DHT22;1985;48.592;8.850;2023-04-03T17:09:06;6.50;71.60
3942;DHT22;1985;48.592;8.850;2023-04-03T17:11:32;6.50;71.70
3942;DHT22;1985;48.592;8.850;2023-04-03T17:13:58;6.60;71.90
3942;DHT22;1985;48.592;8.850;2023-04-03T17:16:25;6.70;71.70
3942;DHT22;1985;48.592;8.850;2023-04-03T17:18:52;6.90;71.80
3942;DHT22;1985;48.592;8.850;2023-04-03T17:21:19;6.80;70.90
3942;DHT22;1985;48.592;8.850;2023-04-03T17:23:49;6.80;71.80
3942;DHT22;1985;48.592;8.850;2023-04-03T17:26:16;6.80;71.90
3942;DHT22;1985;48.592;8.850;2023-04-03T17:28:42;6.70;71.30
3942;DHT22;1985;48.592;8.850;2023-04-03T17:31:08;6.80;71.70
3942;DHT22;1985;48.592;8.850;2023-04-03T17:33:33;6.70;71.90
3942;DHT22;1985;48.592;8.850;2023-04-03T17:36:02;6.60;72.00
3942;DHT22;1985;48.592;8.850;2023-04-03T17:38:30;6.30;71.40
3942;DHT22;1985;48.592;8.850;2023-04-03T17:41:00;6.50;71.20
3942;DHT22;1985;48.592;8.850;2023-04-03T17:43:27;6.50;69.80
3942;DHT22;1985;48.592;8.850;2023-04-03T17:45:52;6.40;70.50
3942;DHT22;1985;48.592;8.850;2023-04-03T17:48:19;6.30;71.10
3942;DHT22;1985;48.592;8.850;2023-04-03T17:50:44;6.00;70.90
3942;DHT22;1985;48.592;8.850;2023-04-03T17:53:10;6.00;71.10
3942;DHT22;1985;48.592;8.850;2023-04-03T17:55:37;6.10;71.40
3942;DHT22;1985;48.592;8.850;2023-04-03T17:58:04;6.10;70.50
3942;DHT22;1985;48.592;8.850;2023-04-03T18:00:30;6.20;71.40
3942;DHT22;1985;48.592;8.850;2023-04-03T18:02:56;6.10;70.80
3942;DHT22;1985;48.592;8.850;2023-04-03T18:05:22;6.20;71.10
3942;DHT22;1985;48.592;8.850;2023-04-03T18:07:52;6.20;72.10
3942;DHT22;1985;48.592;8.850;2023-04-03T18:10:17;6.30;72.80
3942;DHT22;1985;48.592;8.850;2023-04-03T18:12:43;6.30;73.10
3942;DHT22;1985;48.592;8.850;2023-04-03T18:15:09;6.30;72.80
3942;DHT22;1985;48.592;8.850;2023-04-03T18:17:35;6.20;73.60
3942;DHT22;1985;48.592;8.850;2023-04-03T18:20:02;6.20;74.30
3942;DHT22;1985;48.592;8.850;2023-04-03T18:22:28;6.20;74.70